This is the latest recevied weather packets stored in our database for station/object K4VEB. If no packets are shown the sender has not sent any weather packets the latest 10 day(s).
| Time | Temp. | Humidity | Pressure | Rain* | Wind** | Luminosity | Snow |
|---|---|---|---|---|---|---|---|
| 1777750470 | 20° C | 93% | 1010.5 hPa | 4.83 mm | - | 39 W/m² | - |
| 1777750165 | 20° C | 93% | 1010.4 hPa | 4.83 mm | - | 35 W/m² | - |
| 1777749863 | 20° C | 93% | 1010.7 hPa | 4.32 mm | - | 35 W/m² | - |
| 1777749560 | 20° C | 93% | 1010.6 hPa | 6.1 mm | - | 37 W/m² | - |
| 1777749258 | 20° C | 92% | 1011.1 hPa | 6.6 mm | - | 37 W/m² | - |
| 1777748955 | 20.56° C | 92% | 1011.4 hPa | 3.05 mm | - | 41 W/m² | - |
| 1777748652 | 20.56° C | 93% | 1011.4 hPa | 3.05 mm | - | 40 W/m² | - |
| 1777748348 | 20.56° C | 93% | 1011.5 hPa | 1.27 mm | - | 36 W/m² | - |
| 1777748043 | 20.56° C | 93% | 1011.6 hPa | 1.78 mm | - | 29 W/m² | - |
| 1777747741 | 20.56° C | 93% | 1011.5 hPa | 1.78 mm | - | 29 W/m² | - |
| 1777747436 | 20.56° C | 93% | 1011.7 hPa | 1.27 mm | - | 25 W/m² | - |
| 1777747133 | 20.56° C | 92% | 1011.4 hPa | 3.05 mm | - | 18 W/m² | - |
| 1777746829 | 20° C | 93% | 1011.5 hPa | 7.87 mm | - | 18 W/m² | - |
| 1777746524 | 20° C | 92% | 1011.5 hPa | 22.86 mm | - | 16 W/m² | - |
| 1777746220 | 20° C | 91% | 1011.9 hPa | 30.73 mm | - | 13 W/m² | - |
| 1777745917 | 20.56° C | 88% | 1011.9 hPa | 13.72 mm | - | 11 W/m² | - |
| 1777745616 | 21.67° C | 84% | 1011.9 hPa | 0 mm | - | 14 W/m² | - |
| 1777745313 | 22.78° C | 78% | 1011.7 hPa | 0 mm | - | 11 W/m² | - |
| 1777745010 | 25° C | 68% | 1011.6 hPa | 0 mm | - | 7 W/m² | - |
| 1777744706 | 26.11° C | 64% | 1011.6 hPa | 0 mm | - | 5 W/m² | - |
| 1777744400 | 28.33° C | 66% | 1011.1 hPa | 0 mm | - | 24 W/m² | - |
| 1777744097 | 28.33° C | 66% | 1010.6 hPa | 0 mm | - | 46 W/m² | - |
| 1777743795 | 28.89° C | 65% | 1010.5 hPa | 0 mm | - | 45 W/m² | - |
| 1777743491 | 28.89° C | 64% | 1010.4 hPa | 0 mm | - | 51 W/m² | - |
| 1777743188 | 28.89° C | 63% | 1010.6 hPa | 0 mm | - | 73 W/m² | - |
* Rain latest hour (hover to see other rain measurements)
** Current wind speed in m/s (hover to see current wind gust speed)